Time;durP1;ratioP1;P1;durP2;ratioP2;P2;SDS_P1;SDS_P2;PMS_P1;PMS_P2;Temp;Humidity;BMP_temperature;BMP_pressure;BME280_temperature;BME280_humidity;BME280_pressure;Samples;Min_cycle;Max_cycle;Signal;HPM_P1;HPM_P2
2024/01/26 00:01:38;;;;;;;49.67;23.43;;;5.30;92.40;;;;;;5078121;28;20175;-87
2024/01/26 00:04:04;;;;;;;52.10;23.77;;;5.30;92.40;;;;;;5077779;28;20198;-86
2024/01/26 00:06:30;;;;;;;39.00;23.83;;;5.30;92.40;;;;;;5077422;28;20219;-87
2024/01/26 00:08:56;;;;;;;43.53;25.13;;;5.30;92.40;;;;;;5095706;28;20639;-87
2024/01/26 00:11:21;;;;;;;58.47;25.57;;;5.20;92.40;;;;;;5077909;28;20174;-87
2024/01/26 00:13:47;;;;;;;44.50;23.13;;;5.30;92.40;;;;;;5077739;28;20202;-87
2024/01/26 00:16:12;;;;;;;43.73;23.77;;;5.30;92.40;;;;;;5095691;28;20195;-87
2024/01/26 00:18:41;;;;;;;51.03;23.03;;;5.20;92.50;;;;;;5095488;28;20257;-87
2024/01/26 00:21:07;;;;;;;58.97;22.67;;;5.20;92.50;;;;;;5095806;28;20213;-87
2024/01/26 00:23:34;;;;;;;48.93;21.97;;;5.30;92.60;;;;;;5077244;28;20559;-87
2024/01/26 00:25:59;;;;;;;47.17;20.70;;;5.30;92.70;;;;;;5077077;28;20206;-87
2024/01/26 00:28:25;;;;;;;50.50;20.27;;;5.20;92.90;;;;;;5077529;28;20179;-87
2024/01/26 00:30:51;;;;;;;47.80;28.83;;;5.20;93.10;;;;;;5077313;28;20261;-86
2024/01/26 00:33:16;;;;;;;56.47;28.77;;;5.20;93.20;;;;;;5077127;28;20257;-86
2024/01/26 00:35:42;;;;;;;59.73;24.43;;;5.20;93.40;;;;;;5077011;28;20223;-86
2024/01/26 00:38:09;;;;;;;57.37;26.73;;;5.20;93.60;;;;;;5077816;28;20179;-86
2024/01/26 00:40:34;;;;;;;56.43;27.07;;;5.20;93.70;;;;;;5077068;28;20216;-86
2024/01/26 00:43:00;;;;;;;63.93;27.40;;;5.20;93.90;;;;;;5076990;28;20543;-86
2024/01/26 00:45:25;;;;;;;62.00;27.83;;;5.20;94.00;;;;;;5076900;28;20205;-86
2024/01/26 00:47:51;;;;;;;58.13;26.03;;;5.20;94.10;;;;;;5076843;28;20198;-86
2024/01/26 00:50:16;;;;;;;71.60;27.23;;;5.30;94.20;;;;;;5076969;28;20189;-86
2024/01/26 00:52:42;;;;;;;75.47;27.50;;;5.30;94.20;;;;;;5076907;28;20175;-86
2024/01/26 00:55:08;;;;;;;58.83;27.47;;;5.30;94.20;;;;;;5094966;28;20175;-86
2024/01/26 00:57:33;;;;;;;56.00;25.50;;;5.30;94.20;;;;;;5076511;28;20229;-87
2024/01/26 00:59:59;;;;;;;75.10;28.93;;;5.30;94.20;;;;;;5076651;28;20552;-86
2024/01/26 01:02:25;;;;;;;61.03;29.53;;;5.30;94.20;;;;;;5076728;28;20182;-86
2024/01/26 01:04:51;;;;;;;67.70;28.30;;;5.30;94.30;;;;;;5076820;28;20206;-86
2024/01/26 01:07:16;;;;;;;55.43;20.43;;;5.40;94.30;;;;;;5076689;28;20588;-86
2024/01/26 01:09:42;;;;;;;66.53;22.80;;;5.40;94.30;;;;;;5076795;28;20167;-86
2024/01/26 01:12:07;;;;;;;82.60;31.93;;;5.40;94.30;;;;;;5079493;28;20258;-87
2024/01/26 01:14:36;;;;;;;64.13;26.03;;;5.40;94.40;;;;;;5079367;28;20212;-87
2024/01/26 01:17:04;;;;;;;54.07;22.93;;;5.50;94.40;;;;;;5076885;28;20277;-89
2024/01/26 01:19:29;;;;;;;56.63;22.27;;;5.50;94.40;;;;;;5076535;28;20179;-87
2024/01/26 01:21:56;;;;;;;57.97;23.03;;;5.50;94.30;;;;;;5077363;28;20185;-87
2024/01/26 01:24:21;;;;;;;59.00;22.03;;;5.50;94.40;;;;;;5077285;28;20171;-87
2024/01/26 01:26:47;;;;;;;57.87;23.77;;;5.50;94.30;;;;;;5078018;28;20749;-89
2024/01/26 01:29:12;;;;;;;62.27;23.43;;;5.50;94.40;;;;;;5077591;28;20291;-86
2024/01/26 01:31:38;;;;;;;63.83;23.53;;;5.50;94.40;;;;;;5076010;28;20167;-86
2024/01/26 01:34:05;;;;;;;68.77;23.43;;;5.50;94.40;;;;;;5075941;28;20192;-86
2024/01/26 01:36:30;;;;;;;68.03;24.60;;;5.50;94.40;;;;;;5094156;28;20190;-86
2024/01/26 01:38:56;;;;;;;61.30;24.10;;;5.60;94.50;;;;;;5075868;28;20174;-86
2024/01/26 01:41:22;;;;;;;63.83;23.57;;;5.60;94.50;;;;;;5094556;28;20174;-86
2024/01/26 01:43:55;;;;;;;76.33;26.63;;;5.60;94.60;;;;;;5093822;28;20327;-86
2024/01/26 01:46:21;;;;;;;64.90;21.13;;;5.60;94.70;;;;;;5075613;28;20206;-86
2024/01/26 01:48:47;;;;;;;64.40;23.67;;;5.70;94.70;;;;;;5075625;28;20672;-86
2024/01/26 01:51:15;;;;;;;70.57;26.47;;;5.80;94.80;;;;;;5075932;28;20262;-86
2024/01/26 01:53:41;;;;;;;68.87;25.57;;;5.80;94.90;;;;;;5076368;28;20224;-86
2024/01/26 01:56:11;;;;;;;69.63;26.33;;;5.80;94.80;;;;;;5075446;28;20202;-86
2024/01/26 01:58:38;;;;;;;72.30;27.10;;;5.90;94.80;;;;;;5075455;28;20175;-86
2024/01/26 02:01:04;;;;;;;69.17;26.80;;;5.80;94.80;;;;;;5075540;28;20548;-86
2024/01/26 02:03:30;;;;;;;68.43;25.83;;;5.90;94.90;;;;;;5075389;28;20186;-86
2024/01/26 02:05:56;;;;;;;60.53;24.80;;;5.90;94.90;;;;;;5093394;28;20194;-86
2024/01/26 02:08:22;;;;;;;74.90;26.47;;;5.90;95.00;;;;;;5074926;28;20178;-86
2024/01/26 02:10:47;;;;;;;82.20;28.03;;;5.90;94.90;;;;;;5075514;28;20299;-86
2024/01/26 02:13:13;;;;;;;86.40;29.27;;;6.00;95.00;;;;;;5093586;28;20179;-86
2024/01/26 02:15:38;;;;;;;83.63;27.43;;;6.00;95.00;;;;;;5075374;28;20431;-86
2024/01/26 02:18:05;;;;;;;68.77;27.37;;;6.00;95.00;;;;;;5075876;28;20711;-86
2024/01/26 02:20:30;;;;;;;81.00;27.03;;;6.00;95.00;;;;;;5075361;28;20707;-86
2024/01/26 02:22:56;;;;;;;76.57;29.33;;;6.10;95.00;;;;;;5075283;28;20171;-86
2024/01/26 02:25:21;;;;;;;70.40;28.10;;;6.00;95.00;;;;;;5075122;28;20728;-86
2024/01/26 02:27:47;;;;;;;71.43;27.23;;;6.10;95.00;;;;;;5075165;28;20190;-86
2024/01/26 02:30:13;;;;;;;66.47;27.40;;;6.00;95.00;;;;;;5075599;28;20245;-86
2024/01/26 02:32:38;;;;;;;65.60;27.40;;;6.10;95.10;;;;;;5075482;28;20174;-86
2024/01/26 02:35:04;;;;;;;68.93;28.40;;;6.10;95.10;;;;;;5076220;28;20178;-86
2024/01/26 02:37:30;;;;;;;73.67;29.33;;;6.10;95.10;;;;;;5074926;28;20574;-86
2024/01/26 02:39:55;;;;;;;74.87;29.13;;;6.10;95.10;;;;;;5075124;28;20266;-86
2024/01/26 02:42:21;;;;;;;64.97;28.20;;;6.10;95.10;;;;;;5075002;28;20661;-86
2024/01/26 02:44:47;;;;;;;66.50;25.23;;;6.20;95.10;;;;;;5075037;28;20179;-86
2024/01/26 02:47:12;;;;;;;62.73;28.57;;;6.10;95.20;;;;;;5092996;28;20273;-86
2024/01/26 02:49:42;;;;;;;65.27;28.23;;;6.20;95.20;;;;;;5075053;28;20202;-86
2024/01/26 02:52:07;;;;;;;71.87;26.80;;;6.20;95.20;;;;;;5074911;28;20174;-86
2024/01/26 02:54:33;;;;;;;63.87;28.43;;;6.30;95.30;;;;;;5092920;28;20163;-86
2024/01/26 02:56:58;;;;;;;74.57;32.57;;;6.30;95.30;;;;;;5074826;28;20745;-86
2024/01/26 02:59:24;;;;;;;70.60;33.37;;;6.30;95.40;;;;;;5074952;28;20219;-86
2024/01/26 03:01:50;;;;;;;75.23;33.40;;;6.30;95.40;;;;;;5075264;28;20383;-86
2024/01/26 03:04:15;;;;;;;77.47;32.47;;;6.30;95.40;;;;;;5093027;28;20688;-86
2024/01/26 03:06:41;;;;;;;76.83;34.97;;;6.30;95.40;;;;;;5074651;28;20217;-86
2024/01/26 03:09:07;;;;;;;69.97;36.20;;;6.40;95.50;;;;;;5074907;28;20167;-86
2024/01/26 03:11:42;;;;;;;70.03;34.87;;;6.40;95.50;;;;;;5074646;28;20193;-86
2024/01/26 03:14:09;;;;;;;77.17;32.57;;;6.40;95.50;;;;;;5074792;28;20542;-86
2024/01/26 03:16:38;;;;;;;83.40;34.73;;;6.40;95.50;;;;;;5092678;28;20187;-86
2024/01/26 03:19:03;;;;;;;71.53;34.70;;;6.50;95.50;;;;;;5075987;28;20171;-86
2024/01/26 03:21:29;;;;;;;82.63;36.23;;;6.40;95.50;;;;;;5078422;28;20174;-86
2024/01/26 03:23:54;;;;;;;66.07;33.23;;;6.50;95.40;;;;;;5096504;28;20177;-86
2024/01/26 03:26:20;;;;;;;71.43;32.83;;;6.50;95.50;;;;;;5078245;28;20242;-86
2024/01/26 03:28:46;;;;;;;71.40;34.03;;;6.50;95.60;;;;;;5096459;28;20209;-86
2024/01/26 03:31:12;;;;;;;77.87;34.83;;;6.40;95.60;;;;;;5078194;28;20566;-86
2024/01/26 03:33:37;;;;;;;88.07;34.17;;;6.40;95.70;;;;;;5078111;28;20178;-86
2024/01/26 03:36:03;;;;;;;75.60;34.47;;;6.40;95.70;;;;;;5078151;28;20685;-86
2024/01/26 03:38:29;;;;;;;88.33;33.27;;;6.40;95.80;;;;;;5096227;28;20175;-86
2024/01/26 03:40:54;;;;;;;77.17;30.43;;;6.40;95.80;;;;;;5096154;28;20179;-86
2024/01/26 03:43:20;;;;;;;72.57;28.80;;;6.50;95.80;;;;;;5078135;28;20182;-86
2024/01/26 03:45:45;;;;;;;73.33;29.17;;;6.50;95.90;;;;;;5077810;28;20678;-86
2024/01/26 03:48:11;;;;;;;76.43;28.73;;;6.50;95.90;;;;;;5077933;28;20202;-86
2024/01/26 03:50:37;;;;;;;70.80;26.80;;;6.60;95.90;;;;;;5095986;28;20252;-86
2024/01/26 03:53:02;;;;;;;76.73;29.63;;;6.60;95.90;;;;;;5077919;28;20285;-86
2024/01/26 03:55:28;;;;;;;79.47;31.83;;;6.60;95.90;;;;;;5077821;28;20182;-86
2024/01/26 03:57:54;;;;;;;69.03;26.40;;;6.60;96.00;;;;;;5095803;28;20289;-86
2024/01/26 04:00:19;;;;;;;78.13;30.57;;;6.60;95.90;;;;;;5078100;28;20202;-86
2024/01/26 04:02:45;;;;;;;65.20;24.60;;;6.60;95.90;;;;;;5077700;28;20178;-86
2024/01/26 04:05:10;;;;;;;69.40;28.93;;;6.70;96.00;;;;;;5095565;28;20673;-86
2024/01/26 04:07:36;;;;;;;65.87;29.90;;;6.70;96.00;;;;;;5077718;28;20201;-86
2024/01/26 04:10:02;;;;;;;71.10;28.03;;;6.70;96.00;;;;;;5077869;28;20206;-86
2024/01/26 04:12:27;;;;;;;78.77;29.83;;;6.70;95.90;;;;;;5077551;28;20258;-86
2024/01/26 04:14:53;;;;;;;77.27;30.10;;;6.70;95.90;;;;;;5095551;28;20243;-86
2024/01/26 04:17:18;;;;;;;81.07;32.73;;;6.80;96.00;;;;;;5095689;28;20193;-86
2024/01/26 04:19:44;;;;;;;84.20;32.70;;;6.80;96.00;;;;;;5096112;28;20181;-86
2024/01/26 04:22:09;;;;;;;80.63;34.23;;;6.80;95.90;;;;;;5077271;28;20179;-86
2024/01/26 04:24:35;;;;;;;88.27;31.70;;;6.80;96.00;;;;;;5078061;28;20174;-86
2024/01/26 04:27:01;;;;;;;86.13;30.70;;;6.80;95.90;;;;;;5077395;28;20578;-86
2024/01/26 04:29:26;;;;;;;84.80;32.40;;;6.80;95.90;;;;;;5077516;28;20642;-86
2024/01/26 04:31:52;;;;;;;85.77;32.73;;;6.80;95.90;;;;;;5076535;28;20220;-86
2024/01/26 04:34:18;;;;;;;82.23;32.77;;;6.80;96.00;;;;;;5095147;28;20167;-86
2024/01/26 04:36:47;;;;;;;87.67;33.00;;;6.80;95.90;;;;;;5076906;28;20194;-86
2024/01/26 04:39:14;;;;;;;91.57;32.70;;;6.80;96.00;;;;;;5077030;28;20177;-86
2024/01/26 04:41:39;;;;;;;85.47;32.33;;;6.90;96.00;;;;;;5076990;28;20182;-86
2024/01/26 04:44:05;;;;;;;82.90;32.30;;;6.80;96.00;;;;;;5077375;28;20178;-86
2024/01/26 04:46:31;;;;;;;86.47;31.10;;;6.90;96.00;;;;;;5094942;28;20293;-86
2024/01/26 04:48:56;;;;;;;95.30;33.97;;;6.90;96.00;;;;;;5076820;28;20258;-89
2024/01/26 04:51:22;;;;;;;91.03;34.00;;;7.00;96.10;;;;;;5076906;28;20174;-87
2024/01/26 04:53:47;;;;;;;90.07;34.53;;;7.00;96.10;;;;;;5076628;28;20220;-86
2024/01/26 04:56:13;;;;;;;77.23;30.80;;;7.00;96.00;;;;;;5076528;28;20766;-86
2024/01/26 04:58:38;;;;;;;87.70;34.73;;;7.10;96.10;;;;;;5076664;28;20174;-86
2024/01/26 05:01:04;;;;;;;92.47;35.10;;;7.10;96.10;;;;;;5094931;28;20166;-86
2024/01/26 05:03:30;;;;;;;96.87;33.57;;;7.10;96.00;;;;;;5076459;28;20198;-86
2024/01/26 05:05:55;;;;;;;94.27;33.10;;;7.10;96.10;;;;;;5076331;28;20210;-86
2024/01/26 05:08:21;;;;;;;84.17;35.00;;;7.10;96.10;;;;;;5076711;28;20178;-86
2024/01/26 05:10:46;;;;;;;75.97;30.37;;;7.10;96.10;;;;;;5094532;28;20178;-86
2024/01/26 05:13:12;;;;;;;89.10;33.20;;;7.10;96.10;;;;;;5076440;28;20175;-86
2024/01/26 05:15:37;;;;;;;73.43;26.40;;;7.10;96.10;;;;;;5094309;28;20210;-86
2024/01/26 05:18:04;;;;;;;81.67;32.60;;;7.20;96.10;;;;;;5076095;28;20203;-86
2024/01/26 05:20:29;;;;;;;83.27;34.87;;;7.20;96.10;;;;;;5076126;28;20629;-86
2024/01/26 05:22:55;;;;;;;87.03;34.13;;;7.20;96.10;;;;;;5094140;28;20218;-86
2024/01/26 05:25:21;;;;;;;93.27;38.53;;;7.20;96.10;;;;;;5094123;28;20271;-86
2024/01/26 05:27:46;;;;;;;93.57;37.90;;;7.20;96.10;;;;;;5094543;28;20198;-86
2024/01/26 05:30:12;;;;;;;86.80;39.30;;;7.20;96.10;;;;;;5076340;28;20181;-86
2024/01/26 05:32:37;;;;;;;94.90;40.33;;;7.20;96.10;;;;;;5076654;28;20186;-86
2024/01/26 05:35:03;;;;;;;92.60;39.10;;;7.20;96.10;;;;;;5075872;28;20228;-86
2024/01/26 05:37:29;;;;;;;91.57;40.30;;;7.20;96.10;;;;;;5075782;28;20202;-86
2024/01/26 05:39:54;;;;;;;96.17;42.37;;;7.20;96.10;;;;;;5094143;28;20575;-86
2024/01/26 05:42:20;;;;;;;91.07;38.53;;;7.20;96.10;;;;;;5074897;28;20206;-86
2024/01/26 05:44:45;;;;;;;90.47;39.37;;;7.20;96.10;;;;;;5075653;28;20281;-86
2024/01/26 05:47:11;;;;;;;98.03;39.83;;;7.20;96.10;;;;;;5075627;28;20191;-86
2024/01/26 05:49:37;;;;;;;82.17;39.30;;;7.20;96.10;;;;;;5076036;28;20174;-86
2024/01/26 05:52:02;;;;;;;91.23;40.23;;;7.20;96.10;;;;;;5075672;28;20661;-86
2024/01/26 05:54:28;;;;;;;87.90;38.27;;;7.30;96.10;;;;;;5075667;28;20182;-86
2024/01/26 05:56:53;;;;;;;93.73;39.20;;;7.30;96.10;;;;;;5075608;28;20198;-86
2024/01/26 05:59:19;;;;;;;84.07;38.40;;;7.30;96.10;;;;;;5075791;28;20174;-86
2024/01/26 06:01:44;;;;;;;84.77;41.33;;;7.30;96.10;;;;;;5093484;28;20597;-86
2024/01/26 06:04:10;;;;;;;91.87;39.33;;;7.30;96.10;;;;;;5075532;28;20202;-87
2024/01/26 06:06:35;;;;;;;73.37;36.77;;;7.30;96.10;;;;;;5075208;28;20249;-86
2024/01/26 06:09:01;;;;;;;87.50;40.40;;;7.40;96.10;;;;;;5075443;28;20270;-86
2024/01/26 06:11:26;;;;;;;93.90;39.93;;;7.40;96.10;;;;;;5075345;28;20182;-86
2024/01/26 06:13:52;;;;;;;86.07;37.57;;;7.40;96.10;;;;;;5075676;28;20257;-86
2024/01/26 06:16:17;;;;;;;73.37;35.33;;;7.40;96.10;;;;;;5075468;28;20540;-86
2024/01/26 06:18:46;;;;;;;86.50;36.83;;;7.40;96.10;;;;;;5075382;28;20178;-86
2024/01/26 06:21:11;;;;;;;81.43;35.23;;;7.50;96.10;;;;;;5076063;28;20178;-86
2024/01/26 06:23:38;;;;;;;73.20;34.47;;;7.50;96.10;;;;;;5075165;28;20559;-86
2024/01/26 06:26:04;;;;;;;84.87;37.60;;;7.50;96.10;;;;;;5093113;28;20202;-86
2024/01/26 06:28:29;;;;;;;75.43;34.00;;;7.50;96.10;;;;;;5075137;28;20185;-86
2024/01/26 06:30:55;;;;;;;80.77;34.43;;;7.50;96.00;;;;;;5075231;28;20232;-86
2024/01/26 06:33:20;;;;;;;80.63;38.47;;;7.60;96.10;;;;;;5075436;28;20597;-86
2024/01/26 06:35:46;;;;;;;84.53;37.73;;;7.60;96.10;;;;;;5075297;28;20201;-86
2024/01/26 06:38:12;;;;;;;82.53;37.30;;;7.70;96.10;;;;;;5075412;28;20179;-86
2024/01/26 06:40:38;;;;;;;76.53;35.47;;;7.70;96.00;;;;;;5075330;28;20182;-86
2024/01/26 06:43:06;;;;;;;82.73;38.13;;;7.70;96.00;;;;;;5093055;28;20180;-86
2024/01/26 06:45:32;;;;;;;73.80;34.53;;;7.70;96.00;;;;;;5074861;28;20217;-86
2024/01/26 06:47:58;;;;;;;69.07;32.10;;;7.80;96.10;;;;;;5093091;28;20602;-86
2024/01/26 06:50:23;;;;;;;81.03;37.60;;;7.90;96.10;;;;;;5074932;28;20175;-86
2024/01/26 06:52:49;;;;;;;79.43;38.07;;;7.90;96.00;;;;;;5075140;28;20200;-86
2024/01/26 06:55:14;;;;;;;67.05;31.65;;;8.00;96.10;;;;;;5079139;28;20187;-86
2024/01/26 06:57:40;;;;;;;75.77;40.57;;;8.10;96.00;;;;;;5078825;28;20194;-86
2024/01/26 07:00:07;;;;;;;44.30;20.93;;;8.10;95.90;;;;;;5079027;28;20178;-86
2024/01/26 07:02:33;;;;;;;61.07;29.67;;;8.20;95.90;;;;;;5079787;28;20182;-86
2024/01/26 07:04:59;;;;;;;55.97;26.93;;;8.20;95.80;;;;;;5096867;28;20194;-86
2024/01/26 07:07:24;;;;;;;60.77;28.70;;;8.20;95.70;;;;;;5078800;28;20274;-86
2024/01/26 07:09:50;;;;;;;69.57;33.47;;;8.30;95.80;;;;;;5078830;28;20166;-86
2024/01/26 07:12:15;;;;;;;54.57;28.63;;;8.30;95.70;;;;;;5078859;28;20174;-86
2024/01/26 07:14:41;;;;;;;72.77;35.97;;;8.30;95.70;;;;;;5097013;28;20265;-86
2024/01/26 07:17:06;;;;;;;62.87;32.50;;;8.30;95.50;;;;;;5078483;28;20229;-86
2024/01/26 07:19:32;;;;;;;46.53;26.50;;;8.40;95.40;;;;;;5078537;28;20183;-86
2024/01/26 07:21:57;;;;;;;62.77;34.50;;;8.40;95.40;;;;;;5096829;28;20187;-86
2024/01/26 07:24:23;;;;;;;77.83;40.57;;;8.40;95.30;;;;;;5079232;28;20171;-85
2024/01/26 07:26:49;;;;;;;60.33;31.93;;;8.40;95.20;;;;;;5078637;28;20800;-90
2024/01/26 07:29:14;;;;;;;58.50;31.47;;;8.50;95.30;;;;;;5078622;28;20170;-85
2024/01/26 07:31:41;;;;;;;65.45;34.75;;;8.50;95.20;;;;;;5096660;28;20403;-86
2024/01/26 07:34:07;;;;;;;51.57;27.93;;;8.50;95.20;;;;;;5078487;28;20175;-86
2024/01/26 07:36:36;;;;;;;59.87;32.67;;;8.60;95.10;;;;;;5078315;28;20197;-86
2024/01/26 07:39:02;;;;;;;43.47;26.50;;;8.60;95.10;;;;;;5096856;28;20642;-86
2024/01/26 07:41:28;;;;;;;56.63;31.10;;;8.60;95.10;;;;;;5078095;28;20654;-86
2024/01/26 07:43:53;;;;;;;69.57;34.83;;;8.60;95.10;;;;;;5078029;28;20174;-86
2024/01/26 07:46:19;;;;;;;56.87;32.37;;;8.60;95.10;;;;;;5077886;28;20206;-86
2024/01/26 07:48:44;;;;;;;66.60;39.57;;;8.70;95.10;;;;;;5096113;28;20171;-85
2024/01/26 07:51:10;;;;;;;57.50;32.23;;;8.70;95.00;;;;;;5077922;28;20174;-86
2024/01/26 07:53:36;;;;;;;37.37;24.30;;;8.70;95.00;;;;;;5077938;28;20179;-86
2024/01/26 07:56:01;;;;;;;48.43;32.57;;;8.80;95.00;;;;;;5096077;28;20194;-86
2024/01/26 07:58:27;;;;;;;38.73;23.93;;;8.70;94.90;;;;;;5077736;28;20178;-86
2024/01/26 08:00:53;;;;;;;50.53;30.80;;;8.80;94.90;;;;;;5095798;28;20171;-86
2024/01/26 08:03:18;;;;;;;36.93;24.53;;;8.80;94.90;;;;;;5077990;28;20662;-86
2024/01/26 08:05:44;;;;;;;33.13;23.30;;;8.80;94.90;;;;;;5094703;28;20186;-86
2024/01/26 08:08:09;;;;;;;39.90;23.77;;;8.80;94.90;;;;;;5077559;28;20171;-86
2024/01/26 08:10:35;;;;;;;30.23;21.87;;;8.80;95.00;;;;;;5078095;28;20175;-86
2024/01/26 08:13:00;;;;;;;43.73;29.77;;;8.90;94.90;;;;;;5077532;28;20178;-86
2024/01/26 08:15:26;;;;;;;48.40;28.70;;;9.00;94.90;;;;;;5077543;28;20174;-86
2024/01/26 08:17:51;;;;;;;40.17;28.63;;;9.00;94.90;;;;;;5077336;28;20190;-86
2024/01/26 08:20:17;;;;;;;39.90;25.60;;;9.00;94.80;;;;;;5077557;28;20641;-86
2024/01/26 08:22:43;;;;;;;64.17;40.33;;;9.00;94.80;;;;;;5096212;28;20215;-88
2024/01/26 08:25:09;;;;;;;42.97;28.03;;;9.00;94.90;;;;;;5095658;28;20536;-88
2024/01/26 08:27:35;;;;;;;45.07;27.63;;;9.00;95.00;;;;;;5095469;28;20193;-86
2024/01/26 08:30:01;;;;;;;40.37;23.87;;;9.00;95.00;;;;;;5077432;28;20234;-86
2024/01/26 08:32:26;;;;;;;39.57;25.33;;;9.00;95.10;;;;;;5077227;28;20198;-86
2024/01/26 08:34:52;;;;;;;26.23;17.10;;;9.00;95.10;;;;;;5077071;28;20228;-87
2024/01/26 08:37:18;;;;;;;39.47;24.03;;;9.00;95.20;;;;;;5095122;28;20261;-86
2024/01/26 08:39:44;;;;;;;32.43;19.70;;;9.00;95.30;;;;;;5077572;28;20610;-86
2024/01/26 08:42:10;;;;;;;33.20;20.90;;;9.00;95.40;;;;;;5077979;28;20629;-86
2024/01/26 08:44:36;;;;;;;35.03;22.03;;;9.10;95.50;;;;;;5077098;28;20204;-86
2024/01/26 08:47:01;;;;;;;39.50;21.73;;;9.10;95.50;;;;;;5077173;28;20228;-86
2024/01/26 08:49:27;;;;;;;29.87;17.33;;;9.10;95.60;;;;;;5095061;28;20201;-86
2024/01/26 08:51:52;;;;;;;40.07;20.03;;;9.00;95.70;;;;;;5076954;28;20621;-88
2024/01/26 08:54:18;;;;;;;27.97;18.93;;;9.00;95.80;;;;;;5076767;28;20249;-87
2024/01/26 08:56:44;;;;;;;34.23;20.57;;;9.10;95.80;;;;;;5094865;28;20210;-86
2024/01/26 08:59:10;;;;;;;26.20;16.00;;;9.00;95.80;;;;;;5077112;28;20182;-86
2024/01/26 09:01:36;;;;;;;28.07;16.57;;;9.10;95.80;;;;;;5076957;28;20178;-86
2024/01/26 09:04:05;;;;;;;37.40;23.17;;;9.10;95.90;;;;;;5076486;28;20187;-86
2024/01/26 09:06:31;;;;;;;29.47;17.67;;;9.00;95.90;;;;;;5076285;28;20711;-86
2024/01/26 09:08:56;;;;;;;23.50;14.60;;;9.10;95.90;;;;;;5076547;28;20166;-86
2024/01/26 09:11:22;;;;;;;32.07;16.30;;;9.10;95.90;;;;;;5076675;28;20171;-86
2024/01/26 09:13:47;;;;;;;32.37;19.23;;;9.10;95.80;;;;;;5094695;28;20177;-86
2024/01/26 09:16:13;;;;;;;32.30;18.30;;;9.10;95.80;;;;;;5076424;28;20247;-86
2024/01/26 09:18:39;;;;;;;27.47;16.47;;;9.10;95.90;;;;;;5076208;28;20662;-86
2024/01/26 09:21:05;;;;;;;25.77;15.87;;;9.20;95.90;;;;;;5076523;28;20177;-86
2024/01/26 09:23:30;;;;;;;26.07;16.03;;;9.20;95.90;;;;;;5076443;28;20258;-86
2024/01/26 09:25:56;;;;;;;36.73;22.90;;;9.20;95.90;;;;;;5075927;28;20190;-86
2024/01/26 09:28:21;;;;;;;16.13;11.10;;;9.20;95.90;;;;;;5076114;28;20220;-86
2024/01/26 09:30:47;;;;;;;15.07;10.87;;;9.20;95.90;;;;;;5076078;28;20171;-86
2024/01/26 09:33:13;;;;;;;15.33;11.43;;;9.30;95.80;;;;;;5076480;28;20175;-86
2024/01/26 09:35:38;;;;;;;22.03;13.17;;;9.30;95.80;;;;;;5076005;28;20603;-86
2024/01/26 09:38:04;;;;;;;28.57;16.87;;;9.20;95.80;;;;;;5076197;28;20620;-87
2024/01/26 09:40:30;;;;;;;21.77;12.50;;;9.30;95.90;;;;;;5075772;28;20178;-86
2024/01/26 09:42:56;;;;;;;18.70;12.80;;;9.30;95.90;;;;;;5075614;28;20220;-86
2024/01/26 09:45:22;;;;;;;16.93;11.07;;;9.30;95.90;;;;;;5093741;28;20240;-86
2024/01/26 09:47:51;;;;;;;19.17;13.80;;;9.30;95.90;;;;;;5094014;28;20186;-86
2024/01/26 09:50:21;;;;;;;22.70;14.90;;;9.40;95.90;;;;;;5075686;28;20648;-86
2024/01/26 09:52:48;;;;;;;22.93;16.77;;;9.40;95.90;;;;;;5075930;28;20182;-86
2024/01/26 09:55:14;;;;;;;25.57;18.53;;;9.40;96.00;;;;;;5075705;28;20174;-86
2024/01/26 09:57:43;;;;;;;18.53;13.03;;;9.40;96.00;;;;;;5093715;28;20202;-86
2024/01/26 10:00:10;;;;;;;18.10;12.80;;;9.50;96.00;;;;;;5076336;28;20262;-86
2024/01/26 10:02:35;;;;;;;24.60;19.07;;;9.50;96.00;;;;;;5075599;28;20266;-86
2024/01/26 10:05:01;;;;;;;14.00;10.90;;;9.50;95.90;;;;;;5093393;28;20217;-86
2024/01/26 10:07:27;;;;;;;25.10;15.60;;;9.60;95.90;;;;;;5076087;28;20248;-88
2024/01/26 10:09:52;;;;;;;32.30;19.57;;;9.60;95.80;;;;;;5075716;28;20177;-88
2024/01/26 10:12:18;;;;;;;18.57;14.13;;;9.60;95.90;;;;;;5093553;28;20171;-88
2024/01/26 10:14:43;;;;;;;25.93;18.90;;;9.70;95.90;;;;;;5094139;28;20170;-90
2024/01/26 10:17:17;;;;;;;30.23;20.30;;;9.70;95.90;;;;;;5075354;28;20191;-86
2024/01/26 10:19:42;;;;;;;22.93;17.50;;;9.70;95.90;;;;;;5093307;28;20153;-87
2024/01/26 10:22:08;;;;;;;24.87;19.67;;;9.70;95.90;;;;;;5075215;28;20262;-86
2024/01/26 10:24:33;;;;;;;21.03;17.27;;;9.80;95.90;;;;;;5075336;28;20204;-88
2024/01/26 10:26:59;;;;;;;16.00;14.00;;;9.80;95.90;;;;;;5093304;28;20209;-86
2024/01/26 10:29:24;;;;;;;21.57;17.67;;;9.80;95.90;;;;;;5075534;28;20171;-86
2024/01/26 10:31:51;;;;;;;19.40;14.97;;;9.80;95.80;;;;;;5075233;28;20171;-86
2024/01/26 10:34:17;;;;;;;22.67;17.90;;;9.90;95.80;;;;;;5093106;28;20164;-86
2024/01/26 10:36:48;;;;;;;18.17;15.27;;;9.90;95.80;;;;;;5074984;28;20673;-86
2024/01/26 10:39:22;;;;;;;16.53;14.83;;;10.00;95.70;;;;;;5075155;28;20557;-86
2024/01/26 10:41:56;;;;;;;19.50;16.13;;;10.00;95.70;;;;;;5075078;28;20550;-86
2024/01/26 10:44:23;;;;;;;20.27;17.93;;;10.00;95.70;;;;;;5093552;28;20150;-86
2024/01/26 10:46:50;;;;;;;16.53;14.83;;;10.00;95.70;;;;;;5093152;28;20202;-87
2024/01/26 10:49:16;;;;;;;15.10;13.60;;;10.00;95.80;;;;;;5076120;28;20231;-89
2024/01/26 10:51:43;;;;;;;14.73;13.20;;;10.00;95.80;;;;;;5093559;28;20159;-85
2024/01/26 10:54:10;;;;;;;15.47;13.43;;;10.00;95.90;;;;;;5093061;28;20198;-87
2024/01/26 10:56:37;;;;;;;18.30;15.37;;;10.10;95.90;;;;;;5075308;28;20221;-89
2024/01/26 10:59:02;;;;;;;11.10;9.97;;;10.10;95.90;;;;;;5075127;28;20175;-86
2024/01/26 11:01:29;;;;;;;12.43;8.97;;;10.00;96.00;;;;;;5093054;28;20182;-86
2024/01/26 11:03:58;;;;;;;9.33;8.53;;;10.10;96.00;;;;;;5075307;28;20204;-86
2024/01/26 11:06:26;;;;;;;18.43;13.10;;;10.10;95.90;;;;;;5093476;28;20202;-92
2024/01/26 11:09:00;;;;;;;16.27;12.33;;;10.10;95.90;;;;;;5075804;28;20630;-86
2024/01/26 11:11:31;;;;;;;12.57;10.30;;;10.10;95.90;;;;;;5074788;28;20174;-86
2024/01/26 11:14:01;;;;;;;12.90;11.00;;;10.10;96.00;;;;;;5074788;28;20254;-86
2024/01/26 11:16:34;;;;;;;11.60;10.50;;;10.20;95.90;;;;;;5074525;28;20243;-86
2024/01/26 11:19:01;;;;;;;10.80;9.80;;;10.20;95.90;;;;;;5075192;28;20179;-91
2024/01/26 11:21:44;;;;;;;8.77;7.30;;;10.20;95.80;;;;;;5092764;28;20254;-87
2024/01/26 11:24:18;;;;;;;5.67;4.40;;;10.10;95.30;;;;;;5093421;28;20147;-86
2024/01/26 11:26:59;;;;;;;5.03;4.70;;;9.80;94.70;;;;;;5074598;28;20235;-86
2024/01/26 11:29:35;;;;;;;7.30;6.43;;;9.80;93.70;;;;;;5074671;28;20788;-86
2024/01/26 11:32:17;;;;;;;14.93;7.57;;;9.80;92.90;;;;;;5074748;28;20547;-86
2024/01/26 11:34:44;;;;;;;13.60;8.60;;;9.70;91.80;;;;;;5074528;28;20159;-86
2024/01/26 11:37:14;;;;;;;13.03;8.33;;;9.70;91.40;;;;;;5092585;28;20186;-86
2024/01/26 11:39:42;;;;;;;13.40;8.30;;;9.50;91.70;;;;;;5074745;28;20232;-86
2024/01/26 11:42:11;;;;;;;21.23;9.80;;;9.40;91.60;;;;;;5095401;28;20183;-86
2024/01/26 11:44:41;;;;;;;18.43;10.87;;;9.30;91.50;;;;;;5078102;28;20186;-87
2024/01/26 11:47:11;;;;;;;15.40;9.60;;;9.30;90.50;;;;;;5077921;28;20210;-86
2024/01/26 11:49:38;;;;;;;21.87;9.63;;;9.20;90.90;;;;;;5078853;28;20213;-86
2024/01/26 11:52:04;;;;;;;24.07;9.97;;;9.20;91.00;;;;;;5096116;28;20167;-87
2024/01/26 11:54:31;;;;;;;24.20;11.10;;;9.10;90.40;;;;;;5078308;28;20190;-86
2024/01/26 11:56:58;;;;;;;17.20;10.77;;;9.00;90.30;;;;;;5077698;28;20222;-89
2024/01/26 11:59:23;;;;;;;20.30;10.90;;;8.90;90.30;;;;;;5078137;28;20534;-87
2024/01/26 12:01:49;;;;;;;24.37;11.20;;;8.90;90.10;;;;;;5078274;28;20186;-86
2024/01/26 12:04:16;;;;;;;14.60;10.23;;;8.80;90.50;;;;;;5095991;28;20187;-86
2024/01/26 12:06:42;;;;;;;29.33;12.13;;;8.60;90.50;;;;;;5077553;28;20255;-86
2024/01/26 12:09:09;;;;;;;19.67;9.07;;;8.60;90.90;;;;;;5077568;28;20171;-87
2024/01/26 12:11:35;;;;;;;28.03;11.17;;;8.50;91.10;;;;;;5077624;28;20174;-86
2024/01/26 12:14:01;;;;;;;31.47;12.20;;;8.40;91.40;;;;;;5095874;28;20253;-86
2024/01/26 12:16:29;;;;;;;24.80;11.20;;;8.30;91.40;;;;;;5077843;28;20230;-88
2024/01/26 12:18:55;;;;;;;26.33;11.33;;;8.30;91.40;;;;;;5078250;28;20642;-89
2024/01/26 12:21:21;;;;;;;24.03;12.63;;;8.20;91.30;;;;;;5077857;28;20182;-87
2024/01/26 12:23:52;;;;;;;32.50;11.23;;;8.20;90.70;;;;;;5077203;28;20228;-87
2024/01/26 12:26:18;;;;;;;24.47;12.37;;;8.20;90.70;;;;;;5077171;28;20210;-87
2024/01/26 12:28:43;;;;;;;32.03;13.40;;;8.20;90.30;;;;;;5077255;28;20665;-85
2024/01/26 12:31:09;;;;;;;31.10;14.43;;;8.20;90.10;;;;;;5076170;28;20487;-87
2024/01/26 12:33:36;;;;;;;39.33;15.57;;;8.20;90.00;;;;;;5077333;28;20194;-86